Time;durP1;ratioP1;P1;durP2;ratioP2;P2;SDS_P1;SDS_P2;PMS_P1;PMS_P2;Temp;Humidity;BMP_temperature;BMP_pressure;BME280_temperature;BME280_humidity;BME280_pressure;Samples;Min_cycle;Max_cycle;Signal;HPM_P1;HPM_P2
2024/01/20 00:02:19;;;;;;;100.77;93.03;;;1.40;99.90;;;;;;5051928;28;20045;-75
2024/01/20 00:04:45;;;;;;;59.33;53.37;;;1.30;99.90;;;;;;5053573;28;20372;-75
2024/01/20 00:07:11;;;;;;;68.80;62.03;;;1.30;99.90;;;;;;5054115;28;20036;-75
2024/01/20 00:09:38;;;;;;;71.80;65.60;;;1.30;99.90;;;;;;5054459;28;20042;-73
2024/01/20 00:12:04;;;;;;;82.63;75.60;;;1.30;99.90;;;;;;5053834;28;20045;-75
2024/01/20 00:14:30;;;;;;;93.80;86.17;;;1.30;99.90;;;;;;5054390;28;20053;-74
2024/01/20 00:16:56;;;;;;;59.83;53.90;;;1.30;99.90;;;;;;5054054;28;20152;-75
2024/01/20 00:19:22;;;;;;;74.43;67.93;;;1.30;99.90;;;;;;5054361;28;20025;-75
2024/01/20 00:21:48;;;;;;;66.13;59.40;;;1.20;99.90;;;;;;5054076;28;20382;-74
2024/01/20 00:24:14;;;;;;;64.47;58.67;;;1.20;99.90;;;;;;5054301;28;20052;-74
2024/01/20 00:26:40;;;;;;;52.70;47.53;;;1.20;99.90;;;;;;5053534;28;20033;-74
2024/01/20 00:29:06;;;;;;;57.40;51.60;;;1.20;99.90;;;;;;5054402;28;20040;-72
2024/01/20 00:31:33;;;;;;;77.97;71.10;;;1.20;99.90;;;;;;5053140;28;20395;-74
2024/01/20 00:33:59;;;;;;;75.07;67.70;;;1.10;99.90;;;;;;5054081;28;20025;-74
2024/01/20 00:36:25;;;;;;;53.33;48.00;;;1.00;99.90;;;;;;5053986;28;20045;-74
2024/01/20 00:38:51;;;;;;;53.70;48.03;;;1.00;99.90;;;;;;5054455;28;20376;-73
2024/01/20 00:41:17;;;;;;;50.83;44.83;;;1.00;99.90;;;;;;5053475;28;20028;-73
2024/01/20 00:43:43;;;;;;;47.63;42.53;;;1.00;99.90;;;;;;5054139;28;20056;-74
2024/01/20 00:46:09;;;;;;;52.87;45.27;;;1.10;99.90;;;;;;5053097;28;20044;-74
2024/01/20 00:48:35;;;;;;;51.93;46.70;;;1.10;99.90;;;;;;5053811;28;20063;-74
2024/01/20 00:51:01;;;;;;;59.27;53.53;;;1.00;99.90;;;;;;5049374;28;20395;-75
2024/01/20 00:53:27;;;;;;;71.03;65.23;;;1.00;99.90;;;;;;5037793;28;20037;-75
2024/01/20 00:55:53;;;;;;;98.00;90.53;;;0.90;99.90;;;;;;5040822;28;20472;-74
2024/01/20 00:58:19;;;;;;;72.83;66.23;;;1.00;99.90;;;;;;5033825;28;20045;-74
2024/01/20 01:00:45;;;;;;;86.47;78.70;;;1.00;99.90;;;;;;5037753;28;20044;-74
2024/01/20 01:03:12;;;;;;;62.07;55.77;;;1.00;99.90;;;;;;5053437;28;20041;-74
2024/01/20 01:05:38;;;;;;;84.60;77.60;;;1.00;99.90;;;;;;5053281;28;20048;-74
2024/01/20 01:08:04;;;;;;;89.63;81.87;;;1.00;99.90;;;;;;5053459;28;20029;-74
2024/01/20 01:10:30;;;;;;;68.13;61.60;;;1.00;99.90;;;;;;5052931;28;20471;-74
2024/01/20 01:12:56;;;;;;;73.57;67.50;;;0.90;99.90;;;;;;5053494;28;20029;-74
2024/01/20 01:15:22;;;;;;;60.43;54.73;;;0.90;99.90;;;;;;5052353;28;20048;-75
2024/01/20 01:17:48;;;;;;;55.60;50.00;;;0.90;99.90;;;;;;5053245;28;20025;-74
2024/01/20 01:20:14;;;;;;;61.87;56.30;;;0.90;99.90;;;;;;5052993;28;20032;-74
2024/01/20 01:22:40;;;;;;;53.27;47.93;;;0.80;99.90;;;;;;5053069;28;20391;-74
2024/01/20 01:25:09;;;;;;;52.63;47.13;;;0.70;99.90;;;;;;5052959;28;20041;-73
2024/01/20 01:27:35;;;;;;;51.50;41.07;;;0.70;99.90;;;;;;5053259;28;20041;-75
2024/01/20 01:30:01;;;;;;;52.40;46.90;;;0.60;99.90;;;;;;5052015;28;20028;-74
2024/01/20 01:32:27;;;;;;;50.40;40.63;;;0.70;99.90;;;;;;5052275;28;20036;-74
2024/01/20 01:34:53;;;;;;;45.47;40.60;;;0.70;99.90;;;;;;5052615;28;20040;-74
2024/01/20 01:37:20;;;;;;;45.63;40.60;;;0.70;99.90;;;;;;5052735;28;20025;-74
2024/01/20 01:39:46;;;;;;;47.70;42.50;;;0.60;99.90;;;;;;5052665;28;20383;-74
2024/01/20 01:42:12;;;;;;;49.87;40.73;;;0.60;99.90;;;;;;5051221;28;20041;-75
2024/01/20 01:44:38;;;;;;;46.57;39.73;;;0.60;99.90;;;;;;5052747;28;20052;-74
2024/01/20 01:47:05;;;;;;;43.90;38.87;;;0.60;99.90;;;;;;5052208;28;20036;-74
2024/01/20 01:49:31;;;;;;;41.83;37.30;;;0.60;99.90;;;;;;5033752;28;20033;-74
2024/01/20 01:51:57;;;;;;;46.53;37.83;;;0.60;99.90;;;;;;5041705;28;20025;-74
2024/01/20 01:54:23;;;;;;;47.63;40.07;;;0.60;99.90;;;;;;5048951;28;20037;-75
2024/01/20 01:56:51;;;;;;;43.70;38.67;;;0.50;99.90;;;;;;5036849;28;20060;-74
2024/01/20 01:59:18;;;;;;;46.03;41.23;;;0.50;99.90;;;;;;5031109;28;20380;-75
2024/01/20 02:01:44;;;;;;;62.47;56.60;;;0.50;99.90;;;;;;5044685;28;20037;-75
2024/01/20 02:04:10;;;;;;;69.57;63.57;;;0.50;99.90;;;;;;5052388;28;20348;-74
2024/01/20 02:06:36;;;;;;;73.50;67.50;;;0.50;99.90;;;;;;5052145;28;20029;-75
2024/01/20 02:09:03;;;;;;;58.00;53.23;;;0.50;99.90;;;;;;5051963;28;20028;-74
2024/01/20 02:11:29;;;;;;;72.00;66.40;;;0.50;99.90;;;;;;5047370;28;20391;-75
2024/01/20 02:13:55;;;;;;;57.63;52.47;;;0.40;99.90;;;;;;5031086;28;20045;-74
2024/01/20 02:16:21;;;;;;;53.43;48.10;;;0.40;99.90;;;;;;5041582;28;20411;-75
2024/01/20 02:18:47;;;;;;;59.70;54.43;;;0.10;99.90;;;;;;5052409;28;20029;-74
2024/01/20 02:21:13;;;;;;;51.70;46.57;;;0.10;99.90;;;;;;5051961;28;20471;-74
2024/01/20 02:23:39;;;;;;;46.40;41.57;;;0.20;99.90;;;;;;5052010;28;20040;-74
2024/01/20 02:26:06;;;;;;;43.27;39.00;;;0.20;99.90;;;;;;5049857;28;20039;-74
2024/01/20 02:28:32;;;;;;;40.83;36.47;;;0.20;99.90;;;;;;5052118;28;20499;-74
2024/01/20 02:30:58;;;;;;;34.60;31.07;;;0.10;99.90;;;;;;5051569;28;20033;-74
2024/01/20 02:33:24;;;;;;;36.47;32.90;;;0.00;99.90;;;;;;5052050;28;20037;-74
2024/01/20 02:35:50;;;;;;;65.27;60.90;;;-0.10;99.90;;;;;;5051709;28;20032;-74
2024/01/20 02:38:16;;;;;;;31.20;27.30;;;-0.20;99.90;;;;;;5051918;28;20041;-74
2024/01/20 02:40:42;;;;;;;27.30;24.53;;;-0.30;99.90;;;;;;5051563;28;20040;-74
2024/01/20 02:43:08;;;;;;;29.33;26.27;;;-0.60;99.90;;;;;;5051181;28;20036;-74
2024/01/20 02:45:34;;;;;;;34.33;30.77;;;-0.70;99.90;;;;;;5051170;28;20044;-74
2024/01/20 02:48:00;;;;;;;33.53;30.60;;;-0.80;99.90;;;;;;5050737;28;20399;-74
2024/01/20 02:50:28;;;;;;;31.47;24.73;;;-0.80;99.90;;;;;;5051724;28;20049;-74
2024/01/20 02:52:54;;;;;;;30.17;26.63;;;-0.90;99.90;;;;;;5043221;28;20040;-75
2024/01/20 02:55:20;;;;;;;37.17;33.47;;;-0.90;99.90;;;;;;5050047;28;20055;-74
2024/01/20 02:57:46;;;;;;;28.23;26.33;;;-0.90;99.90;;;;;;5031898;28;20030;-75
2024/01/20 03:00:12;;;;;;;34.40;31.30;;;-0.90;99.90;;;;;;5038632;28;20055;-74
2024/01/20 03:02:38;;;;;;;28.43;26.27;;;-1.00;99.90;;;;;;5050253;28;20029;-74
2024/01/20 03:05:05;;;;;;;38.77;35.03;;;-1.00;99.90;;;;;;5045724;28;20069;-74
2024/01/20 03:07:31;;;;;;;40.70;36.73;;;-1.10;99.90;;;;;;5040901;28;20044;-74
2024/01/20 03:09:57;;;;;;;32.73;28.47;;;-1.10;99.90;;;;;;5050269;28;20476;-74
2024/01/20 03:12:23;;;;;;;39.87;35.80;;;-1.10;99.90;;;;;;5052388;28;20771;-75
2024/01/20 03:14:49;;;;;;;36.73;33.10;;;-1.10;99.90;;;;;;5046887;28;20530;-75
2024/01/20 03:17:15;;;;;;;36.37;33.63;;;-1.10;99.90;;;;;;5050644;28;20406;-74
2024/01/20 03:19:42;;;;;;;50.67;46.57;;;-1.20;99.90;;;;;;5053799;28;20032;-74
2024/01/20 03:22:08;;;;;;;32.07;28.97;;;-1.30;99.90;;;;;;5053617;28;20029;-75
2024/01/20 03:24:34;;;;;;;30.20;27.17;;;-1.30;99.90;;;;;;5036552;28;20392;-74
2024/01/20 03:27:00;;;;;;;37.43;33.97;;;-1.30;99.90;;;;;;5048880;28;20475;-74
2024/01/20 03:29:26;;;;;;;34.43;31.37;;;-1.30;99.90;;;;;;5053960;28;20025;-74
2024/01/20 03:31:52;;;;;;;60.77;54.93;;;-1.30;99.90;;;;;;5053001;28;20040;-75
2024/01/20 03:34:19;;;;;;;39.43;35.60;;;-1.30;99.90;;;;;;5053496;28;20041;-74
2024/01/20 03:36:46;;;;;;;40.07;36.33;;;-1.30;99.90;;;;;;5048073;28;20479;-74
2024/01/20 03:39:12;;;;;;;49.17;44.17;;;-1.20;99.90;;;;;;5054769;28;20044;-74
2024/01/20 03:41:38;;;;;;;36.17;33.03;;;-1.20;99.90;;;;;;5047057;28;20033;-74
2024/01/20 03:44:04;;;;;;;44.70;40.93;;;-1.20;99.90;;;;;;5035141;28;20037;-74
2024/01/20 03:46:30;;;;;;;34.57;32.03;;;-1.20;99.90;;;;;;5045398;28;20108;-74
2024/01/20 03:48:56;;;;;;;38.90;35.73;;;-1.30;99.90;;;;;;5054786;28;20029;-74
2024/01/20 03:51:26;;;;;;;40.73;37.30;;;-1.30;99.90;;;;;;5054335;28;20040;-74
2024/01/20 03:53:53;;;;;;;28.53;25.33;;;-1.30;99.90;;;;;;5054869;28;20372;-74
2024/01/20 03:56:19;;;;;;;34.97;30.30;;;-1.30;99.90;;;;;;5044939;28;20511;-74
2024/01/20 03:58:45;;;;;;;35.97;31.47;;;-1.30;99.90;;;;;;5048739;28;20029;-74
2024/01/20 04:01:11;;;;;;;26.87;24.43;;;-1.30;99.90;;;;;;5054029;28;20099;-73
2024/01/20 04:03:37;;;;;;;29.00;26.20;;;-1.30;99.90;;;;;;5054273;28;20037;-74
2024/01/20 04:06:04;;;;;;;29.83;27.23;;;-1.30;99.90;;;;;;5054362;28;20032;-74
2024/01/20 04:08:30;;;;;;;39.73;35.63;;;-1.30;99.90;;;;;;5054611;28;20391;-74
2024/01/20 04:10:56;;;;;;;50.57;45.70;;;-1.30;99.90;;;;;;5054692;28;20032;-74
2024/01/20 04:13:22;;;;;;;58.10;52.43;;;-1.20;99.90;;;;;;5068893;28;20383;-75
2024/01/20 04:15:49;;;;;;;31.17;28.70;;;-1.10;99.90;;;;;;5054086;28;20037;-74
2024/01/20 04:18:15;;;;;;;38.57;32.67;;;-1.20;99.90;;;;;;5052857;28;20037;-74
2024/01/20 04:20:42;;;;;;;51.53;46.63;;;-1.30;99.90;;;;;;5054068;28;20029;-74
2024/01/20 04:23:08;;;;;;;47.43;43.70;;;-1.30;99.90;;;;;;5054897;28;20499;-74
2024/01/20 04:25:34;;;;;;;60.43;55.13;;;-1.30;99.90;;;;;;5053710;28;20036;-74
2024/01/20 04:28:00;;;;;;;41.57;37.20;;;-1.30;99.90;;;;;;5054711;28;20045;-74
2024/01/20 04:30:26;;;;;;;39.27;35.93;;;-1.30;99.90;;;;;;5053588;28;20036;-74
2024/01/20 04:32:52;;;;;;;43.60;35.70;;;-1.30;99.90;;;;;;5036022;28;20431;-75
2024/01/20 04:35:18;;;;;;;43.97;40.27;;;-1.20;99.90;;;;;;5053940;28;20025;-74
2024/01/20 04:37:44;;;;;;;37.27;31.80;;;-1.20;99.90;;;;;;5041944;28;20037;-74
2024/01/20 04:40:11;;;;;;;46.63;43.57;;;-1.20;99.90;;;;;;5041012;28;20025;-74
2024/01/20 04:42:37;;;;;;;44.30;39.67;;;-1.20;99.90;;;;;;5053897;28;20468;-74
2024/01/20 04:45:04;;;;;;;39.03;32.60;;;-1.20;99.90;;;;;;5053561;28;20045;-73
2024/01/20 04:47:33;;;;;;;38.13;34.03;;;-1.20;99.90;;;;;;5053416;28;20053;-74
2024/01/20 04:49:59;;;;;;;36.17;31.37;;;-1.10;99.90;;;;;;5054037;28;20496;-74
2024/01/20 04:52:25;;;;;;;39.57;35.57;;;-1.10;99.90;;;;;;5046057;28;20038;-75
2024/01/20 04:54:52;;;;;;;26.20;24.00;;;-1.00;99.90;;;;;;5038850;28;20464;-74
2024/01/20 04:57:21;;;;;;;38.40;34.23;;;-1.00;99.90;;;;;;5035752;28;20053;-74
2024/01/20 04:59:47;;;;;;;47.63;42.63;;;-1.00;99.90;;;;;;5044657;28;20041;-73
2024/01/20 05:02:14;;;;;;;30.97;28.87;;;-1.00;99.90;;;;;;5052587;28;20044;-74
2024/01/20 05:04:40;;;;;;;40.73;32.40;;;-1.00;99.90;;;;;;5053502;28;20036;-74
2024/01/20 05:07:06;;;;;;;28.57;26.60;;;-1.00;99.90;;;;;;5051443;28;20037;-75
2024/01/20 05:09:32;;;;;;;54.17;49.03;;;-1.20;99.90;;;;;;5033591;28;20029;-74
2024/01/20 05:11:58;;;;;;;33.73;30.90;;;-1.20;99.90;;;;;;5045423;28;20032;-74
2024/01/20 05:14:24;;;;;;;56.10;51.93;;;-1.20;99.90;;;;;;5053199;28;20057;-74
2024/01/20 05:16:50;;;;;;;36.33;29.47;;;-1.20;99.90;;;;;;5052154;28;20160;-74
2024/01/20 05:19:16;;;;;;;33.37;28.47;;;-1.20;99.90;;;;;;5051294;28;20033;-74
2024/01/20 05:21:44;;;;;;;45.00;37.10;;;-1.20;99.90;;;;;;5045875;28;20043;-74
2024/01/20 05:24:10;;;;;;;51.20;46.93;;;-1.20;99.90;;;;;;5052011;28;20040;-74
2024/01/20 05:26:37;;;;;;;36.73;33.00;;;-1.10;99.90;;;;;;5053116;28;20048;-74
2024/01/20 05:29:03;;;;;;;116.53;44.87;;;-1.20;99.90;;;;;;5040779;28;20029;-74
2024/01/20 05:31:31;;;;;;;42.30;32.40;;;-1.10;99.90;;;;;;5043160;28;20403;-74
2024/01/20 05:33:58;;;;;;;39.93;35.80;;;-1.20;99.90;;;;;;5053213;28;20048;-74
2024/01/20 05:36:24;;;;;;;36.47;32.53;;;-1.20;99.90;;;;;;5051102;28;20053;-74
2024/01/20 05:38:50;;;;;;;34.20;30.97;;;-1.20;99.90;;;;;;5032506;28;20049;-74
2024/01/20 05:41:16;;;;;;;47.73;43.27;;;-1.20;99.90;;;;;;5042571;28;20472;-74
2024/01/20 05:43:42;;;;;;;49.93;46.40;;;-1.20;99.90;;;;;;5032884;28;20037;-75
2024/01/20 05:46:08;;;;;;;63.07;58.57;;;-1.20;99.90;;;;;;5045302;28;20033;-74
2024/01/20 05:48:35;;;;;;;31.27;27.07;;;-1.20;99.90;;;;;;5045981;28;20038;-73
2024/01/20 05:51:01;;;;;;;40.27;37.40;;;-1.20;99.90;;;;;;5039431;28;20456;-73
2024/01/20 05:53:28;;;;;;;50.60;46.07;;;-1.20;99.90;;;;;;5052754;28;20044;-74
2024/01/20 05:55:54;;;;;;;49.23;44.50;;;-1.20;99.90;;;;;;5044891;28;20483;-73
2024/01/20 05:58:20;;;;;;;38.30;35.70;;;-1.20;99.90;;;;;;5032006;28;20584;-74
2024/01/20 06:00:46;;;;;;;45.63;41.23;;;-1.20;99.90;;;;;;5034885;28;20403;-73
2024/01/20 06:03:12;;;;;;;52.87;48.07;;;-1.20;99.90;;;;;;5044971;28;20040;-73
2024/01/20 06:05:39;;;;;;;78.53;72.47;;;-1.10;99.90;;;;;;5051914;28;20372;-74
2024/01/20 06:08:05;;;;;;;121.20;113.33;;;-1.00;99.90;;;;;;5046154;28;20028;-73
2024/01/20 06:10:31;;;;;;;41.27;35.17;;;-0.80;99.90;;;;;;5035883;28;20044;-73
2024/01/20 06:12:57;;;;;;;40.97;36.70;;;-0.40;99.90;;;;;;5052686;28;20418;-74
2024/01/20 06:15:23;;;;;;;38.77;34.67;;;-0.50;99.90;;;;;;5050541;28;20045;-74
2024/01/20 06:17:49;;;;;;;39.63;35.67;;;-0.50;99.90;;;;;;5052516;28;20467;-73
2024/01/20 06:20:15;;;;;;;50.10;46.30;;;-0.50;99.90;;;;;;5051377;28;20033;-74
2024/01/20 06:22:42;;;;;;;50.70;46.00;;;-0.70;99.90;;;;;;5052216;28;20044;-73
2024/01/20 06:25:08;;;;;;;38.33;31.53;;;-0.80;99.90;;;;;;5052083;28;20049;-73
2024/01/20 06:27:34;;;;;;;34.20;29.70;;;-0.90;99.90;;;;;;5052330;28;20037;-74
2024/01/20 06:30:00;;;;;;;33.00;29.47;;;-1.00;99.90;;;;;;5050644;28;20511;-73
2024/01/20 06:32:26;;;;;;;39.10;36.33;;;-1.00;99.90;;;;;;5032784;28;20034;-74
2024/01/20 06:34:52;;;;;;;40.63;36.90;;;-1.10;99.90;;;;;;5031830;28;20471;-73
2024/01/20 06:37:18;;;;;;;251.40;55.60;;;-1.20;99.90;;;;;;5031878;28;20029;-73
2024/01/20 06:39:45;;;;;;;44.87;40.57;;;-1.00;99.90;;;;;;5032066;28;20464;-74
2024/01/20 06:42:11;;;;;;;57.00;52.47;;;-0.80;99.90;;;;;;5043812;28;20033;-74
2024/01/20 06:44:37;;;;;;;52.40;48.00;;;-0.70;99.90;;;;;;5043378;28;20045;-73
2024/01/20 06:47:06;;;;;;;70.17;64.37;;;-0.60;99.90;;;;;;5039043;28;20045;-74
2024/01/20 06:49:33;;;;;;;32.73;29.13;;;-0.70;99.90;;;;;;5032074;28;20041;-73
2024/01/20 06:51:59;;;;;;;40.30;36.77;;;-0.90;99.90;;;;;;5046668;28;20036;-74
2024/01/20 06:54:25;;;;;;;35.73;32.40;;;-1.10;99.90;;;;;;5051911;28;20476;-74
2024/01/20 06:56:51;;;;;;;65.33;61.07;;;-1.10;99.90;;;;;;5037712;28;20048;-73
2024/01/20 06:59:19;;;;;;;30.30;27.70;;;-1.10;99.90;;;;;;5031694;28;20395;-72
2024/01/20 07:01:45;;;;;;;40.77;36.60;;;-1.00;99.90;;;;;;5033211;28;20038;-73
2024/01/20 07:04:11;;;;;;;41.27;37.27;;;-0.90;99.90;;;;;;5029784;28;20645;-73
2024/01/20 07:06:37;;;;;;;42.43;38.73;;;-0.70;99.90;;;;;;5035576;28;20037;-73
2024/01/20 07:09:05;;;;;;;55.53;51.83;;;-0.80;99.90;;;;;;5050424;28;20032;-73
2024/01/20 07:11:32;;;;;;;44.27;40.57;;;-0.80;99.90;;;;;;5051078;28;20064;-73
2024/01/20 07:13:58;;;;;;;55.53;51.87;;;-1.20;99.90;;;;;;5051600;28;20470;-73
2024/01/20 07:16:24;;;;;;;100.00;93.40;;;-1.20;99.90;;;;;;5049736;28;20040;-73
2024/01/20 07:18:50;;;;;;;43.70;39.60;;;-1.30;99.90;;;;;;5051812;28;20036;-73
2024/01/20 07:21:16;;;;;;;53.17;34.67;;;-1.10;99.90;;;;;;5051449;28;20068;-73
2024/01/20 07:23:42;;;;;;;33.77;30.23;;;-1.00;99.90;;;;;;5051376;28;20037;-73
2024/01/20 07:26:08;;;;;;;40.37;36.67;;;-0.90;99.90;;;;;;5050945;28;20041;-73
2024/01/20 07:28:34;;;;;;;37.90;33.57;;;-1.10;99.90;;;;;;5045226;28;20044;-73
2024/01/20 07:31:00;;;;;;;39.87;35.97;;;-1.00;99.90;;;;;;5034534;28;20042;-73
2024/01/20 07:33:26;;;;;;;41.77;37.57;;;-0.80;99.90;;;;;;5048718;28;20036;-72
2024/01/20 07:35:53;;;;;;;35.63;32.13;;;-0.60;99.90;;;;;;5050919;28;20024;-73
2024/01/20 07:38:19;;;;;;;33.63;30.23;;;-0.60;99.90;;;;;;5041281;28;20044;-73
2024/01/20 07:40:46;;;;;;;33.03;29.60;;;-0.80;99.90;;;;;;5030887;28;20045;-72
2024/01/20 07:43:12;;;;;;;33.57;30.17;;;-0.90;99.90;;;;;;5031445;28;20029;-72
2024/01/20 07:45:40;;;;;;;34.00;29.47;;;-0.80;99.90;;;;;;5030826;28;20045;-72
2024/01/20 07:48:06;;;;;;;59.70;55.80;;;-0.80;99.90;;;;;;5033011;28;20042;-73
2024/01/20 07:50:32;;;;;;;36.97;33.47;;;-0.80;99.90;;;;;;5052592;28;20045;-73
2024/01/20 07:52:58;;;;;;;45.97;41.60;;;-1.00;99.90;;;;;;5054475;28;20475;-73
2024/01/20 07:55:25;;;;;;;34.37;30.93;;;-1.00;99.90;;;;;;5054046;28;20025;-72
2024/01/20 07:57:51;;;;;;;99.47;93.20;;;-1.00;99.90;;;;;;5054758;28;20029;-73
2024/01/20 08:00:20;;;;;;;40.43;36.37;;;-1.00;99.90;;;;;;5053225;28;20565;-73
2024/01/20 08:02:47;;;;;;;35.83;33.53;;;-1.10;99.90;;;;;;5034326;28;20050;-72
2024/01/20 08:05:13;;;;;;;32.27;28.87;;;-1.10;99.90;;;;;;5034606;28;20480;-73
2024/01/20 08:07:39;;;;;;;47.03;42.57;;;-1.20;99.90;;;;;;5054396;28;20029;-73
2024/01/20 08:10:05;;;;;;;45.33;41.23;;;-1.10;99.90;;;;;;5054155;28;20379;-73
2024/01/20 08:12:31;;;;;;;36.20;32.80;;;-1.10;99.90;;;;;;5053938;28;20041;-73
2024/01/20 08:14:57;;;;;;;35.07;31.30;;;-1.20;99.90;;;;;;5052044;28;20060;-73
2024/01/20 08:17:23;;;;;;;40.23;36.37;;;-1.20;99.90;;;;;;5053845;28;20033;-73
2024/01/20 08:19:50;;;;;;;44.60;40.07;;;-1.20;99.90;;;;;;5054639;28;20032;-73
2024/01/20 08:22:17;;;;;;;40.07;36.03;;;-1.20;99.90;;;;;;5053518;28;20048;-73
2024/01/20 08:24:43;;;;;;;51.40;43.67;;;-1.30;99.90;;;;;;5053387;28;20048;-73
2024/01/20 08:27:09;;;;;;;58.47;52.13;;;-1.20;99.90;;;;;;5051872;28;20024;-73
2024/01/20 08:29:35;;;;;;;56.17;50.83;;;-1.10;99.90;;;;;;5054297;28;20032;-73
2024/01/20 08:32:01;;;;;;;54.50;50.03;;;-1.20;99.90;;;;;;5051375;28;20112;-73
2024/01/20 08:34:28;;;;;;;90.60;84.80;;;-1.30;99.90;;;;;;5054175;28;20029;-73
2024/01/20 08:36:54;;;;;;;39.13;36.40;;;-1.40;99.90;;;;;;5047379;28;20388;-73
2024/01/20 08:39:20;;;;;;;68.10;63.40;;;-1.40;99.90;;;;;;5041992;28;20036;-73
2024/01/20 08:41:47;;;;;;;32.77;29.43;;;-1.50;99.90;;;;;;5052104;28;20040;-73
2024/01/20 08:44:14;;;;;;;47.83;44.00;;;-1.40;99.90;;;;;;5048690;28;20036;-72
2024/01/20 08:46:40;;;;;;;34.23;30.67;;;-1.30;99.90;;;;;;5037948;28;20048;-73
2024/01/20 08:49:06;;;;;;;33.57;31.33;;;-1.20;99.90;;;;;;5039204;28;20476;-73
2024/01/20 08:51:32;;;;;;;50.53;46.90;;;-1.30;99.90;;;;;;5039958;28;20060;-72
2024/01/20 08:53:58;;;;;;;42.90;38.70;;;-1.30;99.90;;;;;;5046291;28;20025;-72
2024/01/20 08:56:25;;;;;;;45.47;41.53;;;-1.30;99.90;;;;;;5046835;28;20025;-72
2024/01/20 08:58:51;;;;;;;41.07;36.97;;;-1.20;99.90;;;;;;5052182;28;20037;-72
2024/01/20 09:01:17;;;;;;;56.77;53.43;;;-1.20;99.90;;;;;;5050445;28;20045;-72
2024/01/20 09:03:43;;;;;;;40.33;36.50;;;-1.00;99.90;;;;;;5052857;28;20479;-73
2024/01/20 09:06:12;;;;;;;39.07;35.33;;;-1.10;99.90;;;;;;5051785;28;20040;-72
2024/01/20 09:08:39;;;;;;;33.40;30.33;;;-1.10;99.90;;;;;;5042717;28;20045;-72
2024/01/20 09:11:05;;;;;;;50.70;46.73;;;-1.10;99.90;;;;;;5039762;28;20037;-73
2024/01/20 09:13:31;;;;;;;37.00;31.10;;;-1.10;99.90;;;;;;5033375;28;20046;-72
2024/01/20 09:15:57;;;;;;;38.30;35.60;;;-1.10;99.90;;;;;;5050755;28;20033;-72
2024/01/20 09:18:23;;;;;;;69.07;64.40;;;-1.10;99.90;;;;;;5051506;28;20037;-72
2024/01/20 09:20:49;;;;;;;117.50;53.63;;;-1.20;99.90;;;;;;5051348;28;20031;-72
2024/01/20 09:23:15;;;;;;;86.50;80.67;;;-1.30;99.90;;;;;;5033031;28;20036;-72
2024/01/20 09:25:41;;;;;;;45.20;42.13;;;-1.30;99.90;;;;;;5050489;28;20029;-73
2024/01/20 09:28:07;;;;;;;41.80;38.77;;;-1.30;99.90;;;;;;5042890;28;20846;-74
2024/01/20 09:30:35;;;;;;;51.80;47.67;;;-1.30;99.90;;;;;;5041661;28;20040;-73
2024/01/20 09:33:04;;;;;;;46.27;42.23;;;-1.30;99.90;;;;;;5052198;28;20061;-74
2024/01/20 09:35:31;;;;;;;44.27;40.77;;;-1.10;99.90;;;;;;5049980;28;20032;-73
2024/01/20 09:37:57;;;;;;;45.43;41.33;;;-0.90;99.90;;;;;;5040178;28;20028;-74
2024/01/20 09:40:23;;;;;;;40.80;37.13;;;-0.80;99.90;;;;;;5047516;28;20032;-74
2024/01/20 09:42:49;;;;;;;38.93;35.50;;;-0.70;99.90;;;;;;5047963;28;20048;-74
2024/01/20 09:45:16;;;;;;;47.03;42.60;;;-0.70;99.90;;;;;;5041951;28;20048;-74
2024/01/20 09:47:42;;;;;;;48.60;44.33;;;-0.90;99.90;;;;;;5041867;28;20033;-74
2024/01/20 09:50:08;;;;;;;56.13;51.53;;;-0.80;99.90;;;;;;5052461;28;20033;-74
2024/01/20 09:52:40;;;;;;;54.53;50.57;;;-0.70;99.90;;;;;;5048149;28;20439;-74
2024/01/20 09:55:19;;;;;;;36.80;34.00;;;-0.80;99.90;;;;;;5025116;28;20025;-74
2024/01/20 09:57:45;;;;;;;33.47;31.13;;;-1.00;99.90;;;;;;5032601;28;20510;-74
2024/01/20 10:00:13;;;;;;;55.77;51.67;;;-1.00;99.90;;;;;;5030787;28;20034;-74
2024/01/20 10:02:40;;;;;;;58.10;53.57;;;-1.10;99.90;;;;;;5050342;28;20503;-73
2024/01/20 10:05:08;;;;;;;34.80;31.57;;;-1.00;99.90;;;;;;5050517;28;20048;-74
2024/01/20 10:07:34;;;;;;;35.80;32.40;;;-0.90;99.90;;;;;;5050708;28;20036;-74
2024/01/20 10:10:01;;;;;;;47.33;43.13;;;-0.80;99.90;;;;;;5051137;28;20029;-74
2024/01/20 10:12:27;;;;;;;54.17;50.10;;;-0.70;99.90;;;;;;5051938;28;20391;-75
2024/01/20 10:14:53;;;;;;;50.20;46.27;;;-0.70;99.90;;;;;;5042330;28;20049;-74
2024/01/20 10:17:19;;;;;;;59.67;54.87;;;-0.70;99.90;;;;;;5048407;28;20040;-75
2024/01/20 10:19:45;;;;;;;50.83;46.47;;;-0.50;99.90;;;;;;5044064;28;20036;-74
2024/01/20 10:22:11;;;;;;;92.93;87.20;;;-0.50;99.90;;;;;;5038208;28;20352;-74
2024/01/20 10:24:47;;;;;;;50.33;46.30;;;-0.60;99.90;;;;;;5044138;28;20029;-74
2024/01/20 10:27:18;;;;;;;103.73;96.53;;;-0.60;99.90;;;;;;5037650;28;20048;-73
2024/01/20 10:29:45;;;;;;;49.03;44.90;;;-0.60;99.90;;;;;;5033148;28;20036;-74
2024/01/20 10:32:11;;;;;;;54.53;49.80;;;-0.50;99.90;;;;;;5047132;28;20044;-74
2024/01/20 10:34:37;;;;;;;107.07;99.83;;;-0.50;99.90;;;;;;5033434;28;20034;-73
2024/01/20 10:37:12;;;;;;;98.23;91.53;;;-0.60;99.90;;;;;;5038917;28;20048;-74
2024/01/20 10:39:41;;;;;;;86.00;80.20;;;-0.60;99.90;;;;;;5043549;28;20025;-73
2024/01/20 10:42:12;;;;;;;85.73;79.63;;;-0.60;99.90;;;;;;5051031;28;20045;-73
2024/01/20 10:44:54;;;;;;;38.78;35.15;;;-0.60;99.90;;;;;;5051533;28;20032;-73
2024/01/20 10:47:26;;;;;;;38.37;34.97;;;-0.60;99.90;;;;;;5048960;28;20037;-73
2024/01/20 10:49:52;;;;;;;46.83;42.70;;;-0.70;99.90;;;;;;5031340;28;20031;-74
2024/01/20 10:52:18;;;;;;;48.47;44.10;;;-0.70;99.90;;;;;;5064247;28;20033;-73
2024/01/20 10:54:44;;;;;;;41.90;38.27;;;-0.60;99.90;;;;;;5049116;28;20033;-73
2024/01/20 10:57:11;;;;;;;54.17;49.57;;;-0.50;99.90;;;;;;5018218;28;20357;-74
2024/01/20 10:59:40;;;;;;;60.33;55.93;;;-0.50;99.90;;;;;;5037851;28;20037;-73
2024/01/20 11:02:07;;;;;;;98.87;92.13;;;-0.30;99.90;;;;;;5037469;28;20029;-73
2024/01/20 11:04:39;;;;;;;51.97;48.63;;;-0.20;99.90;;;;;;5030519;28;20034;-73
2024/01/20 11:07:08;;;;;;;42.30;39.13;;;-0.20;99.90;;;;;;5046373;28;20049;-73
2024/01/20 11:09:35;;;;;;;74.50;69.53;;;-0.40;99.90;;;;;;5037233;28;20045;-73
2024/01/20 11:12:03;;;;;;;60.33;55.93;;;-0.30;99.90;;;;;;5044135;28;20052;-73
2024/01/20 11:14:32;;;;;;;65.13;60.33;;;-0.40;99.90;;;;;;5051400;28;20041;-73
2024/01/20 11:17:11;;;;;;;56.60;52.43;;;-0.40;99.90;;;;;;5046664;28;20037;-73
2024/01/20 11:19:38;;;;;;;46.07;42.00;;;-0.40;99.90;;;;;;5049874;28;20026;-73
2024/01/20 11:22:05;;;;;;;64.70;60.00;;;-0.40;99.90;;;;;;5053195;28;20391;-73
2024/01/20 11:24:41;;;;;;;39.30;36.27;;;-0.40;99.90;;;;;;5054053;28;20040;-73
2024/01/20 11:27:08;;;;;;;65.07;60.67;;;-0.40;99.90;;;;;;5052274;28;20037;-73
2024/01/20 11:29:34;;;;;;;56.53;51.83;;;-0.50;99.90;;;;;;5053478;28;20056;-73
2024/01/20 11:32:00;;;;;;;55.33;50.93;;;-0.40;99.90;;;;;;5051269;28;20044;-73
2024/01/20 11:34:26;;;;;;;48.13;44.40;;;-0.30;99.90;;;;;;5048943;28;20029;-73
2024/01/20 11:36:52;;;;;;;75.83;70.27;;;-0.20;99.90;;;;;;5048168;28;20037;-74
2024/01/20 11:39:19;;;;;;;53.87;50.10;;;-0.30;99.90;;;;;;5054194;28;20032;-74
2024/01/20 11:41:46;;;;;;;65.50;60.80;;;-0.40;99.90;;;;;;5053098;28;20056;-73
2024/01/20 11:44:18;;;;;;;70.07;65.10;;;-0.40;99.90;;;;;;5054213;28;20037;-74
2024/01/20 11:46:44;;;;;;;84.77;79.03;;;-0.40;99.90;;;;;;5051376;28;20056;-73
2024/01/20 11:49:10;;;;;;;62.73;57.67;;;-0.50;99.90;;;;;;5033015;28;20487;-73
2024/01/20 11:51:37;;;;;;;66.20;61.17;;;-0.50;99.90;;;;;;5045801;28;20029;-73
2024/01/20 11:54:03;;;;;;;69.87;64.83;;;-0.40;99.90;;;;;;5052766;28;20499;-73
2024/01/20 11:56:29;;;;;;;67.07;61.53;;;-0.40;99.90;;;;;;5046298;28;20039;-72
2024/01/20 11:58:55;;;;;;;68.90;63.90;;;-0.30;99.90;;;;;;5053654;28;20471;-73
2024/01/20 12:01:21;;;;;;;51.17;47.40;;;-0.30;99.90;;;;;;5053281;28;20041;-73
2024/01/20 12:03:47;;;;;;;97.13;90.70;;;-0.40;99.90;;;;;;5052803;28;20388;-73
2024/01/20 12:06:14;;;;;;;83.73;77.93;;;-0.40;99.90;;;;;;5050211;28;20076;-73
2024/01/20 12:08:44;;;;;;;92.10;86.10;;;-0.30;99.90;;;;;;5032275;28;20044;-74
2024/01/20 12:11:20;;;;;;;98.43;92.15;;;-0.30;99.90;;;;;;5041222;28;20045;-73
2024/01/20 12:13:47;;;;;;;101.20;94.73;;;-0.30;99.90;;;;;;5054437;28;20506;-73
2024/01/20 12:16:13;;;;;;;37.33;34.43;;;-0.20;99.90;;;;;;5053031;28;20037;-73
2024/01/20 12:18:39;;;;;;;71.63;66.50;;;-0.30;99.90;;;;;;5033416;28;20040;-73
2024/01/20 12:21:05;;;;;;;77.70;72.33;;;-0.30;99.90;;;;;;5040274;28;20025;-73
2024/01/20 12:23:32;;;;;;;66.80;62.50;;;-0.30;99.90;;;;;;5053921;28;20033;-73
2024/01/20 12:25:59;;;;;;;45.27;41.53;;;-0.30;99.90;;;;;;5052310;28;20064;-74